sensor_id;sensor_type;location;lat;lon;timestamp;P1;durP1;ratioP1;P2;durP2;ratioP2
51566;SDS011;37657;53.182;5.638;2023-03-03T00:01:21;4.22;;;2.75;;
51566;SDS011;37657;53.182;5.638;2023-03-03T00:03:49;3.42;;;2.33;;
51566;SDS011;37657;53.182;5.638;2023-03-03T00:06:15;6.93;;;2.25;;
51566;SDS011;37657;53.182;5.638;2023-03-03T00:08:40;6.30;;;2.70;;
51566;SDS011;37657;53.182;5.638;2023-03-03T00:11:06;5.32;;;3.20;;
51566;SDS011;37657;53.182;5.638;2023-03-03T00:13:34;4.80;;;2.92;;
51566;SDS011;37657;53.182;5.638;2023-03-03T00:16:25;5.80;;;2.97;;
51566;SDS011;37657;53.182;5.638;2023-03-03T00:21:25;4.47;;;2.38;;
51566;SDS011;37657;53.182;5.638;2023-03-03T00:26:44;7.72;;;2.65;;
51566;SDS011;37657;53.182;5.638;2023-03-03T00:31:54;3.97;;;2.78;;
51566;SDS011;37657;53.182;5.638;2023-03-03T00:34:32;5.50;;;2.75;;
51566;SDS011;37657;53.182;5.638;2023-03-03T00:36:59;4.40;;;2.50;;
51566;SDS011;37657;53.182;5.638;2023-03-03T00:39:37;5.53;;;2.92;;
51566;SDS011;37657;53.182;5.638;2023-03-03T00:42:11;4.25;;;2.53;;
51566;SDS011;37657;53.182;5.638;2023-03-03T00:44:40;9.20;;;2.60;;
51566;SDS011;37657;53.182;5.638;2023-03-03T00:49:51;4.30;;;2.15;;
51566;SDS011;37657;53.182;5.638;2023-03-03T00:52:18;7.65;;;3.17;;
51566;SDS011;37657;53.182;5.638;2023-03-03T00:54:45;4.65;;;2.47;;
51566;SDS011;37657;53.182;5.638;2023-03-03T00:57:11;5.03;;;2.13;;
51566;SDS011;37657;53.182;5.638;2023-03-03T00:59:37;3.08;;;2.15;;
51566;SDS011;37657;53.182;5.638;2023-03-03T01:02:03;4.28;;;2.25;;
51566;SDS011;37657;53.182;5.638;2023-03-03T01:04:29;4.40;;;1.95;;
51566;SDS011;37657;53.182;5.638;2023-03-03T01:06:55;6.03;;;2.28;;
51566;SDS011;37657;53.182;5.638;2023-03-03T01:09:20;6.47;;;2.85;;
51566;SDS011;37657;53.182;5.638;2023-03-03T01:11:46;5.15;;;2.30;;
51566;SDS011;37657;53.182;5.638;2023-03-03T01:14:12;4.38;;;2.63;;
51566;SDS011;37657;53.182;5.638;2023-03-03T01:16:37;4.20;;;2.15;;
51566;SDS011;37657;53.182;5.638;2023-03-03T01:19:05;4.13;;;2.60;;
51566;SDS011;37657;53.182;5.638;2023-03-03T01:21:31;3.15;;;2.40;;
51566;SDS011;37657;53.182;5.638;2023-03-03T01:23:57;4.82;;;2.42;;
51566;SDS011;37657;53.182;5.638;2023-03-03T01:26:22;3.50;;;2.17;;
51566;SDS011;37657;53.182;5.638;2023-03-03T01:28:48;6.97;;;3.15;;
51566;SDS011;37657;53.182;5.638;2023-03-03T01:31:14;5.05;;;2.38;;
51566;SDS011;37657;53.182;5.638;2023-03-03T01:33:39;5.43;;;2.53;;
51566;SDS011;37657;53.182;5.638;2023-03-03T01:36:05;4.45;;;2.67;;
51566;SDS011;37657;53.182;5.638;2023-03-03T01:38:35;2.63;;;1.83;;
51566;SDS011;37657;53.182;5.638;2023-03-03T01:41:01;6.00;;;1.83;;
51566;SDS011;37657;53.182;5.638;2023-03-03T01:43:27;5.70;;;2.58;;
51566;SDS011;37657;53.182;5.638;2023-03-03T01:48:27;6.90;;;2.75;;
51566;SDS011;37657;53.182;5.638;2023-03-03T01:51:03;3.35;;;2.55;;
51566;SDS011;37657;53.182;5.638;2023-03-03T01:53:35;4.18;;;2.80;;
51566;SDS011;37657;53.182;5.638;2023-03-03T01:56:08;3.42;;;2.33;;
51566;SDS011;37657;53.182;5.638;2023-03-03T01:58:35;4.15;;;2.45;;
51566;SDS011;37657;53.182;5.638;2023-03-03T02:01:42;8.48;;;2.92;;
51566;SDS011;37657;53.182;5.638;2023-03-03T02:04:01;5.90;;;2.63;;
51566;SDS011;37657;53.182;5.638;2023-03-03T02:06:29;3.78;;;2.28;;
51566;SDS011;37657;53.182;5.638;2023-03-03T02:11:49;5.00;;;2.50;;
51566;SDS011;37657;53.182;5.638;2023-03-03T02:14:18;7.38;;;2.72;;
51566;SDS011;37657;53.182;5.638;2023-03-03T02:16:43;3.92;;;2.45;;
51566;SDS011;37657;53.182;5.638;2023-03-03T02:19:12;6.45;;;2.97;;
51566;SDS011;37657;53.182;5.638;2023-03-03T02:22:02;7.57;;;3.50;;
51566;SDS011;37657;53.182;5.638;2023-03-03T02:24:37;5.63;;;2.33;;
51566;SDS011;37657;53.182;5.638;2023-03-03T02:27:08;6.93;;;2.65;;
51566;SDS011;37657;53.182;5.638;2023-03-03T02:29:34;2.97;;;2.15;;
51566;SDS011;37657;53.182;5.638;2023-03-03T02:32:00;5.88;;;2.70;;
51566;SDS011;37657;53.182;5.638;2023-03-03T02:34:25;2.72;;;2.22;;
51566;SDS011;37657;53.182;5.638;2023-03-03T02:36:51;4.10;;;3.28;;
51566;SDS011;37657;53.182;5.638;2023-03-03T02:41:49;7.80;;;2.53;;
51566;SDS011;37657;53.182;5.638;2023-03-03T02:44:23;9.23;;;2.85;;
51566;SDS011;37657;53.182;5.638;2023-03-03T02:46:50;5.00;;;2.83;;
51566;SDS011;37657;53.182;5.638;2023-03-03T02:49:22;6.03;;;4.05;;
51566;SDS011;37657;53.182;5.638;2023-03-03T02:51:49;5.07;;;3.40;;
51566;SDS011;37657;53.182;5.638;2023-03-03T02:54:16;7.15;;;2.53;;
51566;SDS011;37657;53.182;5.638;2023-03-03T02:56:43;3.20;;;2.53;;
51566;SDS011;37657;53.182;5.638;2023-03-03T02:59:09;3.47;;;2.60;;
51566;SDS011;37657;53.182;5.638;2023-03-03T03:01:35;14.93;;;3.78;;
51566;SDS011;37657;53.182;5.638;2023-03-03T03:04:05;5.60;;;3.42;;
51566;SDS011;37657;53.182;5.638;2023-03-03T03:06:36;5.97;;;3.28;;
51566;SDS011;37657;53.182;5.638;2023-03-03T03:09:02;6.05;;;3.30;;
51566;SDS011;37657;53.182;5.638;2023-03-03T03:11:28;4.72;;;3.95;;
51566;SDS011;37657;53.182;5.638;2023-03-03T03:13:54;8.63;;;2.92;;
51566;SDS011;37657;53.182;5.638;2023-03-03T03:16:19;2.90;;;2.08;;
51566;SDS011;37657;53.182;5.638;2023-03-03T03:18:45;7.88;;;4.43;;
51566;SDS011;37657;53.182;5.638;2023-03-03T03:21:11;3.03;;;2.33;;
51566;SDS011;37657;53.182;5.638;2023-03-03T03:23:38;2.90;;;2.22;;
51566;SDS011;37657;53.182;5.638;2023-03-03T03:26:04;4.15;;;2.25;;
51566;SDS011;37657;53.182;5.638;2023-03-03T03:28:30;3.97;;;2.97;;
51566;SDS011;37657;53.182;5.638;2023-03-03T03:30:56;3.50;;;2.63;;
51566;SDS011;37657;53.182;5.638;2023-03-03T03:33:22;12.32;;;3.20;;
51566;SDS011;37657;53.182;5.638;2023-03-03T03:35:48;5.05;;;2.90;;
51566;SDS011;37657;53.182;5.638;2023-03-03T03:38:15;3.05;;;2.45;;
51566;SDS011;37657;53.182;5.638;2023-03-03T03:40:41;5.55;;;2.60;;
51566;SDS011;37657;53.182;5.638;2023-03-03T03:43:07;3.50;;;2.78;;
51566;SDS011;37657;53.182;5.638;2023-03-03T03:45:32;5.00;;;2.92;;
51566;SDS011;37657;53.182;5.638;2023-03-03T03:47:58;3.97;;;2.75;;
51566;SDS011;37657;53.182;5.638;2023-03-03T03:50:24;3.95;;;2.47;;
51566;SDS011;37657;53.182;5.638;2023-03-03T03:52:49;5.97;;;2.55;;
51566;SDS011;37657;53.182;5.638;2023-03-03T03:55:15;3.25;;;2.30;;
51566;SDS011;37657;53.182;5.638;2023-03-03T03:57:41;6.40;;;3.20;;
51566;SDS011;37657;53.182;5.638;2023-03-03T04:00:07;5.13;;;2.58;;
51566;SDS011;37657;53.182;5.638;2023-03-03T04:02:35;4.38;;;2.97;;
51566;SDS011;37657;53.182;5.638;2023-03-03T04:05:00;5.68;;;3.40;;
51566;SDS011;37657;53.182;5.638;2023-03-03T04:07:26;3.35;;;2.53;;
51566;SDS011;37657;53.182;5.638;2023-03-03T04:09:51;6.55;;;2.40;;
51566;SDS011;37657;53.182;5.638;2023-03-03T04:12:17;3.97;;;2.25;;
51566;SDS011;37657;53.182;5.638;2023-03-03T04:14:43;5.10;;;3.22;;
51566;SDS011;37657;53.182;5.638;2023-03-03T04:17:12;4.65;;;2.58;;
51566;SDS011;37657;53.182;5.638;2023-03-03T04:19:44;4.28;;;2.63;;
51566;SDS011;37657;53.182;5.638;2023-03-03T04:22:10;5.47;;;2.97;;
51566;SDS011;37657;53.182;5.638;2023-03-03T04:24:37;3.08;;;2.35;;
51566;SDS011;37657;53.182;5.638;2023-03-03T04:27:03;5.22;;;2.53;;
51566;SDS011;37657;53.182;5.638;2023-03-03T04:29:29;3.72;;;2.13;;
51566;SDS011;37657;53.182;5.638;2023-03-03T04:31:55;4.65;;;2.42;;
51566;SDS011;37657;53.182;5.638;2023-03-03T04:34:20;3.03;;;2.22;;
51566;SDS011;37657;53.182;5.638;2023-03-03T04:36:46;6.95;;;2.83;;
51566;SDS011;37657;53.182;5.638;2023-03-03T04:39:12;4.30;;;2.53;;
51566;SDS011;37657;53.182;5.638;2023-03-03T04:41:37;9.02;;;3.75;;
51566;SDS011;37657;53.182;5.638;2023-03-03T04:44:03;4.63;;;2.72;;
51566;SDS011;37657;53.182;5.638;2023-03-03T04:46:28;4.78;;;2.70;;
51566;SDS011;37657;53.182;5.638;2023-03-03T04:48:54;5.45;;;2.75;;
51566;SDS011;37657;53.182;5.638;2023-03-03T04:51:20;6.25;;;2.25;;
51566;SDS011;37657;53.182;5.638;2023-03-03T04:53:46;3.17;;;2.03;;
51566;SDS011;37657;53.182;5.638;2023-03-03T04:56:12;2.30;;;2.03;;
51566;SDS011;37657;53.182;5.638;2023-03-03T04:58:38;7.25;;;2.80;;
51566;SDS011;37657;53.182;5.638;2023-03-03T05:01:03;3.22;;;2.10;;
51566;SDS011;37657;53.182;5.638;2023-03-03T05:03:29;2.50;;;1.83;;
51566;SDS011;37657;53.182;5.638;2023-03-03T05:05:55;4.80;;;2.70;;
51566;SDS011;37657;53.182;5.638;2023-03-03T05:08:21;6.90;;;2.97;;
51566;SDS011;37657;53.182;5.638;2023-03-03T05:10:50;7.93;;;3.22;;
51566;SDS011;37657;53.182;5.638;2023-03-03T05:13:17;8.98;;;2.78;;
51566;SDS011;37657;53.182;5.638;2023-03-03T05:15:42;11.38;;;3.78;;
51566;SDS011;37657;53.182;5.638;2023-03-03T05:18:13;5.72;;;3.15;;
51566;SDS011;37657;53.182;5.638;2023-03-03T05:20:39;3.28;;;2.15;;
51566;SDS011;37657;53.182;5.638;2023-03-03T05:23:05;2.85;;;2.58;;
51566;SDS011;37657;53.182;5.638;2023-03-03T05:25:31;6.22;;;3.20;;
51566;SDS011;37657;53.182;5.638;2023-03-03T05:27:57;5.25;;;2.20;;
51566;SDS011;37657;53.182;5.638;2023-03-03T05:30:23;4.40;;;2.83;;
51566;SDS011;37657;53.182;5.638;2023-03-03T05:32:48;5.50;;;3.25;;
51566;SDS011;37657;53.182;5.638;2023-03-03T05:35:14;5.72;;;2.60;;
51566;SDS011;37657;53.182;5.638;2023-03-03T05:37:39;3.13;;;2.80;;
51566;SDS011;37657;53.182;5.638;2023-03-03T05:40:10;5.75;;;2.55;;
51566;SDS011;37657;53.182;5.638;2023-03-03T05:42:37;2.42;;;2.08;;
51566;SDS011;37657;53.182;5.638;2023-03-03T05:45:02;6.30;;;2.95;;
51566;SDS011;37657;53.182;5.638;2023-03-03T05:47:28;4.63;;;2.10;;
51566;SDS011;37657;53.182;5.638;2023-03-03T05:49:54;2.97;;;2.38;;
51566;SDS011;37657;53.182;5.638;2023-03-03T05:52:19;4.03;;;2.83;;
51566;SDS011;37657;53.182;5.638;2023-03-03T05:54:45;6.00;;;2.33;;
51566;SDS011;37657;53.182;5.638;2023-03-03T05:57:11;4.13;;;2.63;;
51566;SDS011;37657;53.182;5.638;2023-03-03T05:59:36;3.72;;;2.30;;
51566;SDS011;37657;53.182;5.638;2023-03-03T06:02:02;4.50;;;3.33;;
51566;SDS011;37657;53.182;5.638;2023-03-03T06:04:28;11.70;;;3.15;;
51566;SDS011;37657;53.182;5.638;2023-03-03T06:06:53;4.80;;;2.67;;
51566;SDS011;37657;53.182;5.638;2023-03-03T06:09:19;3.85;;;2.88;;
51566;SDS011;37657;53.182;5.638;2023-03-03T06:11:45;3.75;;;2.75;;
51566;SDS011;37657;53.182;5.638;2023-03-03T06:14:10;3.03;;;2.65;;
51566;SDS011;37657;53.182;5.638;2023-03-03T06:16:36;2.33;;;2.13;;
51566;SDS011;37657;53.182;5.638;2023-03-03T06:19:01;8.27;;;3.80;;
51566;SDS011;37657;53.182;5.638;2023-03-03T06:21:27;5.03;;;3.40;;
51566;SDS011;37657;53.182;5.638;2023-03-03T06:23:52;3.40;;;2.25;;
51566;SDS011;37657;53.182;5.638;2023-03-03T06:26:18;6.60;;;3.60;;
51566;SDS011;37657;53.182;5.638;2023-03-03T06:28:43;2.60;;;2.38;;
51566;SDS011;37657;53.182;5.638;2023-03-03T06:31:09;8.98;;;5.13;;
51566;SDS011;37657;53.182;5.638;2023-03-03T06:33:35;4.60;;;4.00;;
51566;SDS011;37657;53.182;5.638;2023-03-03T06:36:02;5.50;;;3.55;;
51566;SDS011;37657;53.182;5.638;2023-03-03T06:38:28;4.53;;;3.33;;
51566;SDS011;37657;53.182;5.638;2023-03-03T06:40:53;4.82;;;2.88;;
51566;SDS011;37657;53.182;5.638;2023-03-03T06:43:19;6.18;;;3.33;;
51566;SDS011;37657;53.182;5.638;2023-03-03T06:45:45;7.93;;;2.97;;
51566;SDS011;37657;53.182;5.638;2023-03-03T06:48:10;2.17;;;2.00;;
51566;SDS011;37657;53.182;5.638;2023-03-03T06:50:36;4.63;;;2.35;;
51566;SDS011;37657;53.182;5.638;2023-03-03T06:53:09;3.97;;;2.65;;
51566;SDS011;37657;53.182;5.638;2023-03-03T06:55:37;3.42;;;3.13;;
51566;SDS011;37657;53.182;5.638;2023-03-03T06:58:07;5.85;;;3.22;;
51566;SDS011;37657;53.182;5.638;2023-03-03T07:00:40;6.23;;;3.03;;
51566;SDS011;37657;53.182;5.638;2023-03-03T07:03:14;3.85;;;2.45;;
51566;SDS011;37657;53.182;5.638;2023-03-03T07:05:46;4.35;;;3.05;;
51566;SDS011;37657;53.182;5.638;2023-03-03T07:08:15;4.72;;;3.45;;
51566;SDS011;37657;53.182;5.638;2023-03-03T07:10:45;4.78;;;3.90;;
51566;SDS011;37657;53.182;5.638;2023-03-03T07:13:25;5.50;;;3.38;;
51566;SDS011;37657;53.182;5.638;2023-03-03T07:15:53;5.30;;;4.28;;
51566;SDS011;37657;53.182;5.638;2023-03-03T07:18:22;9.13;;;4.32;;
51566;SDS011;37657;53.182;5.638;2023-03-03T07:21:15;4.28;;;2.97;;
51566;SDS011;37657;53.182;5.638;2023-03-03T07:23:43;9.95;;;3.63;;
51566;SDS011;37657;53.182;5.638;2023-03-03T07:26:16;3.58;;;2.53;;
51566;SDS011;37657;53.182;5.638;2023-03-03T07:28:51;3.10;;;2.50;;
51566;SDS011;37657;53.182;5.638;2023-03-03T07:34:21;3.35;;;2.40;;
51566;SDS011;37657;53.182;5.638;2023-03-03T07:36:49;4.85;;;3.22;;
51566;SDS011;37657;53.182;5.638;2023-03-03T07:39:23;4.20;;;2.35;;
51566;SDS011;37657;53.182;5.638;2023-03-03T07:42:01;3.70;;;2.45;;
51566;SDS011;37657;53.182;5.638;2023-03-03T07:44:38;5.13;;;2.72;;
51566;SDS011;37657;53.182;5.638;2023-03-03T07:47:37;3.55;;;2.50;;
51566;SDS011;37657;53.182;5.638;2023-03-03T07:50:00;8.20;;;2.08;;
51566;SDS011;37657;53.182;5.638;2023-03-03T07:52:41;4.63;;;2.35;;
51566;SDS011;37657;53.182;5.638;2023-03-03T08:03:33;4.53;;;2.97;;
51566;SDS011;37657;53.182;5.638;2023-03-03T08:06:00;4.03;;;2.90;;
51566;SDS011;37657;53.182;5.638;2023-03-03T08:08:47;4.43;;;3.22;;
51566;SDS011;37657;53.182;5.638;2023-03-03T08:11:13;5.40;;;3.15;;
51566;SDS011;37657;53.182;5.638;2023-03-03T08:13:39;5.80;;;3.05;;
51566;SDS011;37657;53.182;5.638;2023-03-03T08:18:48;4.03;;;2.63;;
51566;SDS011;37657;53.182;5.638;2023-03-03T08:21:16;6.15;;;2.15;;
51566;SDS011;37657;53.182;5.638;2023-03-03T08:23:43;5.72;;;3.10;;
51566;SDS011;37657;53.182;5.638;2023-03-03T08:26:09;3.85;;;2.83;;
51566;SDS011;37657;53.182;5.638;2023-03-03T08:28:38;3.67;;;2.58;;
51566;SDS011;37657;53.182;5.638;2023-03-03T08:31:03;4.75;;;3.00;;
51566;SDS011;37657;53.182;5.638;2023-03-03T08:33:29;6.72;;;3.72;;
51566;SDS011;37657;53.182;5.638;2023-03-03T08:35:55;2.72;;;2.33;;
51566;SDS011;37657;53.182;5.638;2023-03-03T08:38:20;3.80;;;3.15;;
51566;SDS011;37657;53.182;5.638;2023-03-03T08:40:47;4.63;;;2.85;;
51566;SDS011;37657;53.182;5.638;2023-03-03T08:43:13;3.58;;;2.50;;
51566;SDS011;37657;53.182;5.638;2023-03-03T08:45:44;3.67;;;2.50;;
51566;SDS011;37657;53.182;5.638;2023-03-03T08:48:10;5.35;;;2.47;;
51566;SDS011;37657;53.182;5.638;2023-03-03T08:50:39;3.17;;;2.30;;
51566;SDS011;37657;53.182;5.638;2023-03-03T08:53:06;5.03;;;2.30;;
51566;SDS011;37657;53.182;5.638;2023-03-03T08:55:32;4.93;;;2.63;;
51566;SDS011;37657;53.182;5.638;2023-03-03T08:57:58;5.07;;;2.65;;
51566;SDS011;37657;53.182;5.638;2023-03-03T09:00:24;2.38;;;2.17;;
51566;SDS011;37657;53.182;5.638;2023-03-03T09:02:50;5.30;;;2.47;;
51566;SDS011;37657;53.182;5.638;2023-03-03T09:05:18;5.57;;;2.50;;
51566;SDS011;37657;53.182;5.638;2023-03-03T09:07:44;5.07;;;2.35;;
51566;SDS011;37657;53.182;5.638;2023-03-03T09:10:12;5.75;;;2.00;;
51566;SDS011;37657;53.182;5.638;2023-03-03T09:12:43;3.08;;;1.77;;
51566;SDS011;37657;53.182;5.638;2023-03-03T09:17:49;3.65;;;2.22;;
51566;SDS011;37657;53.182;5.638;2023-03-03T09:20:35;3.35;;;2.17;;
51566;SDS011;37657;53.182;5.638;2023-03-03T09:23:16;2.80;;;2.08;;
51566;SDS011;37657;53.182;5.638;2023-03-03T09:25:49;4.28;;;1.90;;
51566;SDS011;37657;53.182;5.638;2023-03-03T09:28:23;3.60;;;2.35;;
51566;SDS011;37657;53.182;5.638;2023-03-03T09:30:49;2.08;;;1.58;;
51566;SDS011;37657;53.182;5.638;2023-03-03T09:33:20;4.78;;;2.10;;
51566;SDS011;37657;53.182;5.638;2023-03-03T09:35:49;3.63;;;1.92;;
51566;SDS011;37657;53.182;5.638;2023-03-03T09:38:24;4.53;;;2.40;;
51566;SDS011;37657;53.182;5.638;2023-03-03T09:46:47;2.28;;;1.90;;
51566;SDS011;37657;53.182;5.638;2023-03-03T10:03:54;3.45;;;1.48;;
51566;SDS011;37657;53.182;5.638;2023-03-03T10:06:48;5.40;;;1.88;;
51566;SDS011;37657;53.182;5.638;2023-03-03T10:09:36;3.35;;;1.83;;
51566;SDS011;37657;53.182;5.638;2023-03-03T10:12:39;1.33;;;1.20;;
51566;SDS011;37657;53.182;5.638;2023-03-03T10:20:58;4.35;;;1.52;;
51566;SDS011;37657;53.182;5.638;2023-03-03T10:26:56;3.35;;;1.38;;
51566;SDS011;37657;53.182;5.638;2023-03-03T10:34:54;3.00;;;1.73;;
51566;SDS011;37657;53.182;5.638;2023-03-03T10:40:42;3.85;;;1.77;;
51566;SDS011;37657;53.182;5.638;2023-03-03T10:46:09;4.38;;;1.70;;
51566;SDS011;37657;53.182;5.638;2023-03-03T10:52:00;9.10;;;1.83;;
51566;SDS011;37657;53.182;5.638;2023-03-03T11:00:30;3.88;;;1.80;;
51566;SDS011;37657;53.182;5.638;2023-03-03T11:06:01;5.82;;;2.28;;
51566;SDS011;37657;53.182;5.638;2023-03-03T11:11:52;4.15;;;2.05;;
51566;SDS011;37657;53.182;5.638;2023-03-03T11:14:36;2.42;;;1.83;;
51566;SDS011;37657;53.182;5.638;2023-03-03T11:22:31;7.30;;;2.33;;
51566;SDS011;37657;53.182;5.638;2023-03-03T11:25:10;24.88;;;3.70;;
51566;SDS011;37657;53.182;5.638;2023-03-03T11:30:56;5.13;;;2.28;;
51566;SDS011;37657;53.182;5.638;2023-03-03T11:39:00;9.13;;;2.30;;
51566;SDS011;37657;53.182;5.638;2023-03-03T11:47:04;8.60;;;2.58;;
51566;SDS011;37657;53.182;5.638;2023-03-03T11:49:42;8.45;;;3.40;;
51566;SDS011;37657;53.182;5.638;2023-03-03T11:54:55;6.72;;;3.45;;
51566;SDS011;37657;53.182;5.638;2023-03-03T12:22:07;6.60;;;2.83;;
51566;SDS011;37657;53.182;5.638;2023-03-03T12:24:44;6.25;;;3.15;;
51566;SDS011;37657;53.182;5.638;2023-03-03T12:32:53;8.07;;;2.40;;
51566;SDS011;37657;53.182;5.638;2023-03-03T12:35:26;11.35;;;3.63;;
51566;SDS011;37657;53.182;5.638;2023-03-03T12:38:10;9.32;;;3.55;;
51566;SDS011;37657;53.182;5.638;2023-03-03T12:43:52;25.38;;;5.32;;
51566;SDS011;37657;53.182;5.638;2023-03-03T12:46:24;8.15;;;3.72;;
51566;SDS011;37657;53.182;5.638;2023-03-03T12:48:52;20.25;;;6.10;;
51566;SDS011;37657;53.182;5.638;2023-03-03T12:54:25;6.05;;;3.40;;
51566;SDS011;37657;53.182;5.638;2023-03-03T12:59:49;23.60;;;5.88;;
51566;SDS011;37657;53.182;5.638;2023-03-03T13:02:44;13.48;;;5.35;;
51566;SDS011;37657;53.182;5.638;2023-03-03T13:05:18;13.05;;;5.10;;
51566;SDS011;37657;53.182;5.638;2023-03-03T13:10:43;12.50;;;5.10;;
51566;SDS011;37657;53.182;5.638;2023-03-03T13:13:24;11.27;;;4.18;;
51566;SDS011;37657;53.182;5.638;2023-03-03T13:15:59;11.23;;;4.32;;
51566;SDS011;37657;53.182;5.638;2023-03-03T13:21:09;15.48;;;6.05;;
51566;SDS011;37657;53.182;5.638;2023-03-03T13:26:46;9.55;;;4.60;;
51566;SDS011;37657;53.182;5.638;2023-03-03T13:32:19;8.63;;;4.32;;
51566;SDS011;37657;53.182;5.638;2023-03-03T13:34:50;12.45;;;4.53;;
51566;SDS011;37657;53.182;5.638;2023-03-03T13:40:13;15.07;;;6.10;;
51566;SDS011;37657;53.182;5.638;2023-03-03T13:43:25;10.05;;;5.25;;
51566;SDS011;37657;53.182;5.638;2023-03-03T13:53:48;12.70;;;4.95;;
51566;SDS011;37657;53.182;5.638;2023-03-03T13:58:56;23.60;;;5.35;;
51566;SDS011;37657;53.182;5.638;2023-03-03T14:07:11;12.55;;;5.05;;
51566;SDS011;37657;53.182;5.638;2023-03-03T14:09:47;17.10;;;7.72;;
51566;SDS011;37657;53.182;5.638;2023-03-03T14:12:37;11.05;;;4.18;;
51566;SDS011;37657;53.182;5.638;2023-03-03T14:15:25;26.17;;;7.00;;
51566;SDS011;37657;53.182;5.638;2023-03-03T14:20:46;11.60;;;5.05;;
51566;SDS011;37657;53.182;5.638;2023-03-03T14:23:17;15.65;;;6.03;;
51566;SDS011;37657;53.182;5.638;2023-03-03T14:26:12;14.13;;;5.22;;
51566;SDS011;37657;53.182;5.638;2023-03-03T14:28:41;22.60;;;6.75;;
51566;SDS011;37657;53.182;5.638;2023-03-03T14:31:15;10.68;;;5.32;;
51566;SDS011;37657;53.182;5.638;2023-03-03T14:33:45;19.15;;;6.53;;
51566;SDS011;37657;53.182;5.638;2023-03-03T14:36:41;10.43;;;4.88;;
51566;SDS011;37657;53.182;5.638;2023-03-03T14:42:05;27.65;;;7.78;;
51566;SDS011;37657;53.182;5.638;2023-03-03T14:49:36;8.85;;;4.32;;
51566;SDS011;37657;53.182;5.638;2023-03-03T14:54:38;11.93;;;5.35;;
51566;SDS011;37657;53.182;5.638;2023-03-03T15:00:01;8.55;;;5.05;;
51566;SDS011;37657;53.182;5.638;2023-03-03T15:05:20;13.98;;;5.32;;
51566;SDS011;37657;53.182;5.638;2023-03-03T15:07:50;13.25;;;6.15;;
51566;SDS011;37657;53.182;5.638;2023-03-03T15:10:25;11.95;;;6.07;;
51566;SDS011;37657;53.182;5.638;2023-03-03T15:13:44;14.77;;;5.65;;
51566;SDS011;37657;53.182;5.638;2023-03-03T15:15:52;27.95;;;6.07;;
51566;SDS011;37657;53.182;5.638;2023-03-03T15:18:27;9.40;;;4.68;;
51566;SDS011;37657;53.182;5.638;2023-03-03T15:21:10;12.77;;;6.25;;
51566;SDS011;37657;53.182;5.638;2023-03-03T15:23:43;15.45;;;5.45;;
51566;SDS011;37657;53.182;5.638;2023-03-03T15:26:23;19.73;;;6.03;;
51566;SDS011;37657;53.182;5.638;2023-03-03T15:43:31;15.85;;;7.30;;
51566;SDS011;37657;53.182;5.638;2023-03-03T15:51:57;14.27;;;6.27;;
51566;SDS011;37657;53.182;5.638;2023-03-03T15:57:40;17.38;;;6.07;;
51566;SDS011;37657;53.182;5.638;2023-03-03T16:00:31;16.05;;;6.15;;
51566;SDS011;37657;53.182;5.638;2023-03-03T16:03:16;19.75;;;8.40;;
51566;SDS011;37657;53.182;5.638;2023-03-03T16:08:16;18.83;;;7.10;;
51566;SDS011;37657;53.182;5.638;2023-03-03T16:13:40;13.27;;;4.88;;
51566;SDS011;37657;53.182;5.638;2023-03-03T16:19:01;14.75;;;5.43;;
51566;SDS011;37657;53.182;5.638;2023-03-03T16:21:45;11.32;;;5.72;;
51566;SDS011;37657;53.182;5.638;2023-03-03T16:30:10;17.17;;;6.65;;
51566;SDS011;37657;53.182;5.638;2023-03-03T16:32:47;15.65;;;5.78;;
51566;SDS011;37657;53.182;5.638;2023-03-03T16:35:24;33.47;;;7.07;;
51566;SDS011;37657;53.182;5.638;2023-03-03T16:38:02;14.20;;;6.07;;
51566;SDS011;37657;53.182;5.638;2023-03-03T16:56:59;14.93;;;7.38;;
51566;SDS011;37657;53.182;5.638;2023-03-03T16:59:33;18.98;;;6.25;;
51566;SDS011;37657;53.182;5.638;2023-03-03T17:05:28;25.17;;;7.72;;
51566;SDS011;37657;53.182;5.638;2023-03-03T17:14:01;16.63;;;7.25;;
51566;SDS011;37657;53.182;5.638;2023-03-03T17:19:43;20.38;;;6.60;;
51566;SDS011;37657;53.182;5.638;2023-03-03T17:25:18;24.10;;;7.40;;
51566;SDS011;37657;53.182;5.638;2023-03-03T17:38:58;34.80;;;7.80;;
51566;SDS011;37657;53.182;5.638;2023-03-03T17:41:33;16.08;;;9.15;;
51566;SDS011;37657;53.182;5.638;2023-03-03T17:44:38;23.52;;;7.22;;
51566;SDS011;37657;53.182;5.638;2023-03-03T17:50:26;22.70;;;6.65;;
51566;SDS011;37657;53.182;5.638;2023-03-03T17:53:11;21.00;;;6.72;;
51566;SDS011;37657;53.182;5.638;2023-03-03T17:55:57;28.60;;;8.13;;
51566;SDS011;37657;53.182;5.638;2023-03-03T18:06:43;19.23;;;6.07;;
51566;SDS011;37657;53.182;5.638;2023-03-03T18:12:14;13.07;;;6.40;;
51566;SDS011;37657;53.182;5.638;2023-03-03T18:17:27;18.02;;;7.70;;
51566;SDS011;37657;53.182;5.638;2023-03-03T18:20:20;14.40;;;5.25;;
51566;SDS011;37657;53.182;5.638;2023-03-03T18:23:24;8.52;;;5.80;;
51566;SDS011;37657;53.182;5.638;2023-03-03T18:26:00;12.17;;;5.53;;
51566;SDS011;37657;53.182;5.638;2023-03-03T18:31:01;10.88;;;5.60;;
51566;SDS011;37657;53.182;5.638;2023-03-03T18:33:42;19.17;;;7.43;;
51566;SDS011;37657;53.182;5.638;2023-03-03T18:38:50;20.50;;;6.05;;
51566;SDS011;37657;53.182;5.638;2023-03-03T18:41:21;14.15;;;5.00;;
51566;SDS011;37657;53.182;5.638;2023-03-03T18:43:51;21.05;;;5.95;;
51566;SDS011;37657;53.182;5.638;2023-03-03T18:56:44;19.80;;;7.53;;
51566;SDS011;37657;53.182;5.638;2023-03-03T19:04:41;12.50;;;6.32;;
51566;SDS011;37657;53.182;5.638;2023-03-03T19:09:57;13.60;;;5.78;;
51566;SDS011;37657;53.182;5.638;2023-03-03T19:20:56;13.88;;;5.35;;
51566;SDS011;37657;53.182;5.638;2023-03-03T19:29:01;8.95;;;5.90;;
51566;SDS011;37657;53.182;5.638;2023-03-03T19:31:46;15.35;;;6.53;;
51566;SDS011;37657;53.182;5.638;2023-03-03T19:34:37;17.02;;;4.80;;
51566;SDS011;37657;53.182;5.638;2023-03-03T19:37:29;7.13;;;4.53;;
51566;SDS011;37657;53.182;5.638;2023-03-03T19:40:19;15.65;;;5.72;;
51566;SDS011;37657;53.182;5.638;2023-03-03T19:43:10;9.55;;;4.63;;
51566;SDS011;37657;53.182;5.638;2023-03-03T19:45:50;10.13;;;5.38;;
51566;SDS011;37657;53.182;5.638;2023-03-03T19:48:29;14.43;;;5.35;;
51566;SDS011;37657;53.182;5.638;2023-03-03T19:51:23;19.17;;;7.25;;
51566;SDS011;37657;53.182;5.638;2023-03-03T19:54:15;9.75;;;4.55;;
51566;SDS011;37657;53.182;5.638;2023-03-03T19:56:49;10.50;;;5.10;;
51566;SDS011;37657;53.182;5.638;2023-03-03T20:04:56;15.88;;;7.70;;
51566;SDS011;37657;53.182;5.638;2023-03-03T20:10:32;13.27;;;5.68;;
51566;SDS011;37657;53.182;5.638;2023-03-03T20:13:13;8.93;;;4.63;;
51566;SDS011;37657;53.182;5.638;2023-03-03T20:18:39;13.85;;;5.72;;
51566;SDS011;37657;53.182;5.638;2023-03-03T20:26:59;20.05;;;5.25;;
51566;SDS011;37657;53.182;5.638;2023-03-03T20:35:23;15.40;;;6.95;;
51566;SDS011;37657;53.182;5.638;2023-03-03T20:57:25;19.80;;;4.65;;
51566;SDS011;37657;53.182;5.638;2023-03-03T21:00:00;7.40;;;4.57;;
51566;SDS011;37657;53.182;5.638;2023-03-03T21:05:25;15.45;;;5.15;;
51566;SDS011;37657;53.182;5.638;2023-03-03T21:07:52;23.85;;;5.85;;
51566;SDS011;37657;53.182;5.638;2023-03-03T21:10:21;13.05;;;4.97;;
51566;SDS011;37657;53.182;5.638;2023-03-03T21:12:53;7.97;;;4.63;;
51566;SDS011;37657;53.182;5.638;2023-03-03T21:15:24;15.05;;;6.22;;
51566;SDS011;37657;53.182;5.638;2023-03-03T21:17:55;11.48;;;5.00;;
51566;SDS011;37657;53.182;5.638;2023-03-03T21:20:26;13.80;;;5.22;;
51566;SDS011;37657;53.182;5.638;2023-03-03T21:22:53;10.68;;;5.68;;
51566;SDS011;37657;53.182;5.638;2023-03-03T21:31:06;16.40;;;4.82;;
51566;SDS011;37657;53.182;5.638;2023-03-03T21:33:47;12.32;;;5.28;;
51566;SDS011;37657;53.182;5.638;2023-03-03T21:36:16;18.30;;;6.40;;
51566;SDS011;37657;53.182;5.638;2023-03-03T21:38:45;16.00;;;6.15;;